sensor_id;sensor_type;location;lat;lon;timestamp;pressure;altitude;pressure_sealevel;temperature;humidity
39411;BME280;26579;43.238;23.124;2024-03-23T00:52:43;97001.31;;;9.23;37.28
39411;BME280;26579;43.238;23.124;2024-03-23T00:55:09;96994.94;;;9.27;36.88
39411;BME280;26579;43.238;23.124;2024-03-23T00:57:34;96999.81;;;9.32;36.90
39411;BME280;26579;43.238;23.124;2024-03-23T01:00:00;96996.88;;;9.37;37.29
39411;BME280;26579;43.238;23.124;2024-03-23T01:02:26;96989.50;;;9.30;36.78
39411;BME280;26579;43.238;23.124;2024-03-23T01:04:51;96992.47;;;9.26;36.86
39411;BME280;26579;43.238;23.124;2024-03-23T01:07:17;96991.28;;;9.30;37.15
39411;BME280;26579;43.238;23.124;2024-03-23T01:09:42;96990.94;;;9.35;37.01
39411;BME280;26579;43.238;23.124;2024-03-23T01:12:08;96995.88;;;9.26;37.25
39411;BME280;26579;43.238;23.124;2024-03-23T01:14:34;96993.75;;;9.20;37.94
39411;BME280;26579;43.238;23.124;2024-03-23T01:16:59;96989.84;;;9.15;37.22
39411;BME280;26579;43.238;23.124;2024-03-23T01:19:25;96988.66;;;9.19;37.54
39411;BME280;26579;43.238;23.124;2024-03-23T01:21:50;96982.06;;;9.15;37.61
39411;BME280;26579;43.238;23.124;2024-03-23T01:24:16;96994.47;;;9.11;37.93
39411;BME280;26579;43.238;23.124;2024-03-23T01:26:41;96980.25;;;9.04;38.31
39411;BME280;26579;43.238;23.124;2024-03-23T01:29:07;96987.50;;;9.12;38.63
39411;BME280;26579;43.238;23.124;2024-03-23T01:31:33;96989.63;;;9.18;38.52
39411;BME280;26579;43.238;23.124;2024-03-23T01:33:58;96987.59;;;9.21;38.54
39411;BME280;26579;43.238;23.124;2024-03-23T01:36:24;96983.72;;;9.27;38.22
39411;BME280;26579;43.238;23.124;2024-03-23T01:38:50;96985.84;;;9.33;38.25
39411;BME280;26579;43.238;23.124;2024-03-23T01:41:16;96984.53;;;9.27;38.17
39411;BME280;26579;43.238;23.124;2024-03-23T01:43:41;96981.13;;;9.27;38.45
39411;BME280;26579;43.238;23.124;2024-03-23T01:46:07;96983.00;;;9.25;38.39
39411;BME280;26579;43.238;23.124;2024-03-23T01:48:33;96975.34;;;9.23;38.59
39411;BME280;26579;43.238;23.124;2024-03-23T01:50:58;96970.25;;;9.22;38.77
39411;BME280;26579;43.238;23.124;2024-03-23T01:53:24;96964.94;;;9.12;38.50
39411;BME280;26579;43.238;23.124;2024-03-23T01:55:50;96968.59;;;9.10;38.52
39411;BME280;26579;43.238;23.124;2024-03-23T01:58:16;96973.44;;;9.14;38.63
39411;BME280;26579;43.238;23.124;2024-03-23T02:00:42;96966.94;;;9.09;39.21
39411;BME280;26579;43.238;23.124;2024-03-23T02:03:24;96969.41;;;8.99;39.15
39411;BME280;26579;43.238;23.124;2024-03-23T02:05:49;96978.63;;;9.14;38.52
39411;BME280;26579;43.238;23.124;2024-03-23T02:08:17;96980.41;;;9.25;38.47
39411;BME280;26579;43.238;23.124;2024-03-23T02:10:43;96987.50;;;9.23;38.52
39411;BME280;26579;43.238;23.124;2024-03-23T02:13:09;96985.00;;;9.21;38.80
39411;BME280;26579;43.238;23.124;2024-03-23T02:15:35;96985.03;;;9.33;39.25
39411;BME280;26579;43.238;23.124;2024-03-23T02:18:00;96966.97;;;9.31;39.31
39411;BME280;26579;43.238;23.124;2024-03-23T02:20:26;96989.66;;;9.40;39.02
39411;BME280;26579;43.238;23.124;2024-03-23T02:22:53;96972.19;;;9.31;39.19
39411;BME280;26579;43.238;23.124;2024-03-23T02:25:19;96972.41;;;9.28;39.34
39411;BME280;26579;43.238;23.124;2024-03-23T02:27:44;96980.19;;;9.17;40.05
39411;BME280;26579;43.238;23.124;2024-03-23T02:30:10;96968.00;;;9.17;39.98
39411;BME280;26579;43.238;23.124;2024-03-23T02:32:36;96975.56;;;9.09;40.03
39411;BME280;26579;43.238;23.124;2024-03-23T02:35:01;96976.34;;;8.98;40.47
39411;BME280;26579;43.238;23.124;2024-03-23T02:37:27;96972.47;;;9.04;40.42
39411;BME280;26579;43.238;23.124;2024-03-23T02:39:52;96973.66;;;9.00;40.57
39411;BME280;26579;43.238;23.124;2024-03-23T02:42:18;96971.66;;;9.03;40.69
39411;BME280;26579;43.238;23.124;2024-03-23T02:44:44;96974.00;;;9.06;40.28
39411;BME280;26579;43.238;23.124;2024-03-23T02:47:10;96974.00;;;9.06;40.60
39411;BME280;26579;43.238;23.124;2024-03-23T02:49:36;96971.66;;;9.15;40.71
39411;BME280;26579;43.238;23.124;2024-03-23T02:52:01;96963.38;;;9.10;40.39
39411;BME280;26579;43.238;23.124;2024-03-23T02:54:27;96962.56;;;9.09;40.56
39411;BME280;26579;43.238;23.124;2024-03-23T02:56:52;96969.78;;;9.05;40.78
39411;BME280;26579;43.238;23.124;2024-03-23T02:59:18;96965.97;;;8.98;41.38
39411;BME280;26579;43.238;23.124;2024-03-23T03:01:44;96972.66;;;8.90;41.81
39411;BME280;26579;43.238;23.124;2024-03-23T03:04:09;96964.88;;;8.90;41.69
39411;BME280;26579;43.238;23.124;2024-03-23T03:06:35;96957.81;;;8.92;41.55
39411;BME280;26579;43.238;23.124;2024-03-23T03:09:00;96955.31;;;8.79;41.59
39411;BME280;26579;43.238;23.124;2024-03-23T03:11:26;96969.56;;;8.73;42.74
39411;BME280;26579;43.238;23.124;2024-03-23T03:13:52;96971.22;;;8.74;42.54
39411;BME280;26579;43.238;23.124;2024-03-23T03:16:17;96966.16;;;8.73;42.26
39411;BME280;26579;43.238;23.124;2024-03-23T03:18:43;96952.41;;;8.59;42.54
39411;BME280;26579;43.238;23.124;2024-03-23T03:21:08;96963.34;;;8.76;42.33
39411;BME280;26579;43.238;23.124;2024-03-23T03:23:34;96962.13;;;8.69;42.33
39411;BME280;26579;43.238;23.124;2024-03-23T03:26:00;96960.25;;;8.71;41.82
39411;BME280;26579;43.238;23.124;2024-03-23T03:28:25;96970.03;;;8.67;42.10
39411;BME280;26579;43.238;23.124;2024-03-23T03:30:51;96967.06;;;8.72;41.66
39411;BME280;26579;43.238;23.124;2024-03-23T03:33:17;96967.25;;;8.81;41.79
39411;BME280;26579;43.238;23.124;2024-03-23T03:35:42;96965.06;;;8.75;41.86
39411;BME280;26579;43.238;23.124;2024-03-23T03:38:08;96977.13;;;8.76;41.95
39411;BME280;26579;43.238;23.124;2024-03-23T03:40:33;96960.00;;;8.74;42.12
39411;BME280;26579;43.238;23.124;2024-03-23T03:42:59;96966.59;;;8.67;42.69
39411;BME280;26579;43.238;23.124;2024-03-23T03:45:25;96976.81;;;8.57;42.31
39411;BME280;26579;43.238;23.124;2024-03-23T03:47:50;96963.63;;;8.60;42.75
39411;BME280;26579;43.238;23.124;2024-03-23T03:50:16;96965.03;;;8.53;42.92
39411;BME280;26579;43.238;23.124;2024-03-23T03:52:41;96966.56;;;8.55;42.98
39411;BME280;26579;43.238;23.124;2024-03-23T03:55:13;96961.94;;;8.48;42.88
39411;BME280;26579;43.238;23.124;2024-03-23T03:57:39;96956.97;;;8.45;42.82
39411;BME280;26579;43.238;23.124;2024-03-23T04:00:05;96958.06;;;8.53;42.26
39411;BME280;26579;43.238;23.124;2024-03-23T04:02:31;96955.47;;;8.53;42.39
39411;BME280;26579;43.238;23.124;2024-03-23T04:04:56;96960.53;;;8.55;42.23
39411;BME280;26579;43.238;23.124;2024-03-23T04:07:22;96955.34;;;8.55;42.43
39411;BME280;26579;43.238;23.124;2024-03-23T04:09:47;96962.44;;;8.53;42.10
39411;BME280;26579;43.238;23.124;2024-03-23T04:12:13;96962.69;;;8.61;41.92
39411;BME280;26579;43.238;23.124;2024-03-23T04:14:38;96968.09;;;8.58;41.48
39411;BME280;26579;43.238;23.124;2024-03-23T04:17:04;96967.94;;;8.48;42.19
39411;BME280;26579;43.238;23.124;2024-03-23T04:19:30;96964.97;;;8.42;41.98
39411;BME280;26579;43.238;23.124;2024-03-23T04:21:55;96956.78;;;8.35;42.59
39411;BME280;26579;43.238;23.124;2024-03-23T04:24:21;96954.19;;;8.35;42.04
39411;BME280;26579;43.238;23.124;2024-03-23T04:26:47;96956.06;;;8.33;42.50
39411;BME280;26579;43.238;23.124;2024-03-23T04:29:12;96961.03;;;8.36;42.85
39411;BME280;26579;43.238;23.124;2024-03-23T04:31:38;96963.72;;;8.34;42.44
39411;BME280;26579;43.238;23.124;2024-03-23T04:34:04;96957.81;;;8.32;42.30
39411;BME280;26579;43.238;23.124;2024-03-23T04:36:30;96957.41;;;8.26;42.93
39411;BME280;26579;43.238;23.124;2024-03-23T04:38:59;96957.78;;;8.21;42.67
39411;BME280;26579;43.238;23.124;2024-03-23T04:41:25;96963.56;;;8.25;43.15
39411;BME280;26579;43.238;23.124;2024-03-23T04:43:51;96950.50;;;8.26;43.00
39411;BME280;26579;43.238;23.124;2024-03-23T04:46:17;96952.38;;;8.24;43.03
39411;BME280;26579;43.238;23.124;2024-03-23T04:48:43;96959.78;;;8.29;42.81
39411;BME280;26579;43.238;23.124;2024-03-23T04:51:09;96948.50;;;8.30;42.26
39411;BME280;26579;43.238;23.124;2024-03-23T04:53:35;96947.41;;;8.45;42.31
39411;BME280;26579;43.238;23.124;2024-03-23T04:56:00;96948.00;;;8.73;42.10
39411;BME280;26579;43.238;23.124;2024-03-23T04:58:26;96954.50;;;8.90;42.23
39411;BME280;26579;43.238;23.124;2024-03-23T05:00:56;96959.16;;;9.09;40.71
39411;BME280;26579;43.238;23.124;2024-03-23T05:03:22;96940.03;;;9.32;40.81
39411;BME280;26579;43.238;23.124;2024-03-23T05:05:48;96952.81;;;9.69;39.86
39411;BME280;26579;43.238;23.124;2024-03-23T05:08:15;96944.19;;;10.12;39.06
39411;BME280;26579;43.238;23.124;2024-03-23T05:10:41;96947.91;;;10.74;38.28
39411;BME280;26579;43.238;23.124;2024-03-23T05:13:07;96933.34;;;11.84;36.25
39411;BME280;26579;43.238;23.124;2024-03-23T05:15:33;96938.84;;;13.64;33.44
39411;BME280;26579;43.238;23.124;2024-03-23T05:17:58;96939.94;;;15.06;31.06
39411;BME280;26579;43.238;23.124;2024-03-23T05:20:24;96936.97;;;15.96;29.60
39411;BME280;26579;43.238;23.124;2024-03-23T05:22:50;96936.41;;;16.26;28.83
39411;BME280;26579;43.238;23.124;2024-03-23T05:25:15;96938.19;;;16.26;28.74
39411;BME280;26579;43.238;23.124;2024-03-23T05:27:41;96929.16;;;16.12;28.97
39411;BME280;26579;43.238;23.124;2024-03-23T05:30:07;96923.41;;;16.09;28.94
39411;BME280;26579;43.238;23.124;2024-03-23T05:32:33;96935.66;;;15.92;29.13
39411;BME280;26579;43.238;23.124;2024-03-23T05:34:58;96938.41;;;15.48;29.81
39411;BME280;26579;43.238;23.124;2024-03-23T05:37:24;96923.38;;;15.32;29.96
39411;BME280;26579;43.238;23.124;2024-03-23T05:39:50;96936.03;;;15.36;29.93
39411;BME280;26579;43.238;23.124;2024-03-23T05:42:18;96919.88;;;15.23;30.20
39411;BME280;26579;43.238;23.124;2024-03-23T05:44:45;96929.81;;;15.11;30.65
39411;BME280;26579;43.238;23.124;2024-03-23T05:47:11;96929.69;;;14.95;30.61
39411;BME280;26579;43.238;23.124;2024-03-23T05:49:37;96925.28;;;14.96;30.79
39411;BME280;26579;43.238;23.124;2024-03-23T05:52:03;96917.69;;;15.10;30.56
39411;BME280;26579;43.238;23.124;2024-03-23T05:54:29;96918.50;;;15.11;30.42
39411;BME280;26579;43.238;23.124;2024-03-23T05:56:55;96908.34;;;15.08;30.05
39411;BME280;26579;43.238;23.124;2024-03-23T05:59:21;96912.13;;;15.13;29.78
39411;BME280;26579;43.238;23.124;2024-03-23T06:01:47;96905.22;;;15.12;29.83
39411;BME280;26579;43.238;23.124;2024-03-23T06:04:13;96915.72;;;15.12;30.24
39411;BME280;26579;43.238;23.124;2024-03-23T06:06:41;96911.34;;;14.95;30.84
39411;BME280;26579;43.238;23.124;2024-03-23T06:09:09;96914.22;;;14.48;31.89
39411;BME280;26579;43.238;23.124;2024-03-23T06:11:35;96908.09;;;14.03;32.23
39411;BME280;26579;43.238;23.124;2024-03-23T06:14:01;96914.69;;;13.80;33.23
39411;BME280;26579;43.238;23.124;2024-03-23T06:16:26;96902.00;;;13.57;33.29
39411;BME280;26579;43.238;23.124;2024-03-23T06:18:52;96909.66;;;13.41;32.92
39411;BME280;26579;43.238;23.124;2024-03-23T06:21:18;96908.16;;;13.29;33.50
39411;BME280;26579;43.238;23.124;2024-03-23T06:23:44;96908.19;;;13.19;33.12
39411;BME280;26579;43.238;23.124;2024-03-23T06:26:09;96908.88;;;13.21;32.73
39411;BME280;26579;43.238;23.124;2024-03-23T06:28:35;96901.25;;;13.38;31.96
39411;BME280;26579;43.238;23.124;2024-03-23T06:31:01;96902.47;;;13.98;31.08
39411;BME280;26579;43.238;23.124;2024-03-23T06:33:26;96898.69;;;14.64;30.47
39411;BME280;26579;43.238;23.124;2024-03-23T06:35:52;96900.84;;;15.21;29.85
39411;BME280;26579;43.238;23.124;2024-03-23T06:38:18;96901.38;;;15.59;28.96
39411;BME280;26579;43.238;23.124;2024-03-23T06:40:44;96889.41;;;15.99;29.15
39411;BME280;26579;43.238;23.124;2024-03-23T06:43:09;96897.69;;;16.45;29.89
39411;BME280;26579;43.238;23.124;2024-03-23T06:45:35;96889.50;;;16.81;30.09
39411;BME280;26579;43.238;23.124;2024-03-23T06:48:04;96888.81;;;17.03;27.21
39411;BME280;26579;43.238;23.124;2024-03-23T06:50:30;96899.25;;;17.36;24.89
39411;BME280;26579;43.238;23.124;2024-03-23T06:52:55;96890.59;;;17.67;24.76
39411;BME280;26579;43.238;23.124;2024-03-23T06:55:21;96896.22;;;17.63;24.35
39411;BME280;26579;43.238;23.124;2024-03-23T06:57:47;96885.66;;;17.72;23.60
39411;BME280;26579;43.238;23.124;2024-03-23T07:00:13;96893.38;;;17.81;24.84
39411;BME280;26579;43.238;23.124;2024-03-23T07:02:38;96885.78;;;17.86;23.48
39411;BME280;26579;43.238;23.124;2024-03-23T07:05:04;96897.75;;;18.20;24.92
39411;BME280;26579;43.238;23.124;2024-03-23T07:07:30;96889.09;;;18.35;24.09
39411;BME280;26579;43.238;23.124;2024-03-23T07:09:58;96886.00;;;18.54;23.95
39411;BME280;26579;43.238;23.124;2024-03-23T07:12:24;96886.09;;;18.38;22.32
39411;BME280;26579;43.238;23.124;2024-03-23T07:14:49;96882.34;;;18.55;23.76
39411;BME280;26579;43.238;23.124;2024-03-23T07:17:16;96875.09;;;18.34;21.59
39411;BME280;26579;43.238;23.124;2024-03-23T07:19:41;96880.34;;;18.11;22.14
39411;BME280;26579;43.238;23.124;2024-03-23T07:22:07;96876.50;;;18.45;24.42
39411;BME280;26579;43.238;23.124;2024-03-23T07:24:32;96881.06;;;18.51;22.97
39411;BME280;26579;43.238;23.124;2024-03-23T07:26:58;96876.97;;;18.48;20.64
39411;BME280;26579;43.238;23.124;2024-03-23T07:29:24;96866.88;;;18.29;20.65
39411;BME280;26579;43.238;23.124;2024-03-23T07:31:49;96865.94;;;17.99;20.60
39411;BME280;26579;43.238;23.124;2024-03-23T07:34:15;96878.19;;;18.15;20.99
39411;BME280;26579;43.238;23.124;2024-03-23T07:36:41;96875.91;;;18.58;23.64
39411;BME280;26579;43.238;23.124;2024-03-23T07:39:06;96871.66;;;18.80;21.27
39411;BME280;26579;43.238;23.124;2024-03-23T07:41:32;96869.19;;;18.93;23.45
39411;BME280;26579;43.238;23.124;2024-03-23T07:44:00;96860.66;;;18.91;22.92
39411;BME280;26579;43.238;23.124;2024-03-23T07:46:28;96859.22;;;19.18;24.10
39411;BME280;26579;43.238;23.124;2024-03-23T07:48:53;96860.84;;;19.49;23.58
39411;BME280;26579;43.238;23.124;2024-03-23T07:51:23;96851.09;;;19.34;22.05
39411;BME280;26579;43.238;23.124;2024-03-23T07:53:48;96863.25;;;19.29;21.40
39411;BME280;26579;43.238;23.124;2024-03-23T07:56:15;96851.38;;;19.25;21.30
39411;BME280;26579;43.238;23.124;2024-03-23T07:58:41;96850.50;;;19.32;20.98
39411;BME280;26579;43.238;23.124;2024-03-23T08:03:34;96850.19;;;19.72;21.57
39411;BME280;26579;43.238;23.124;2024-03-23T08:06:13;96846.47;;;19.66;20.71
39411;BME280;26579;43.238;23.124;2024-03-23T08:08:40;96840.94;;;19.97;22.69
39411;BME280;26579;43.238;23.124;2024-03-23T08:11:06;96844.03;;;20.22;20.63
39411;BME280;26579;43.238;23.124;2024-03-23T08:13:32;96832.22;;;20.40;21.51
39411;BME280;26579;43.238;23.124;2024-03-23T08:16:01;96835.75;;;20.68;22.40
39411;BME280;26579;43.238;23.124;2024-03-23T08:18:28;96848.25;;;20.17;19.78
39411;BME280;26579;43.238;23.124;2024-03-23T08:23:24;96830.84;;;20.22;18.59
39411;BME280;26579;43.238;23.124;2024-03-23T08:25:51;96838.09;;;20.42;19.13
39411;BME280;26579;43.238;23.124;2024-03-23T08:28:16;96826.00;;;20.75;21.72
39411;BME280;26579;43.238;23.124;2024-03-23T08:30:42;96835.06;;;21.22;20.97
39411;BME280;26579;43.238;23.124;2024-03-23T08:33:08;96835.06;;;21.57;21.46
39411;BME280;26579;43.238;23.124;2024-03-23T08:35:33;96831.13;;;21.46;18.83
39411;BME280;26579;43.238;23.124;2024-03-23T08:38:00;96835.69;;;21.24;18.81
39411;BME280;26579;43.238;23.124;2024-03-23T08:40:26;96822.16;;;21.41;19.34
39411;BME280;26579;43.238;23.124;2024-03-23T08:42:51;96823.38;;;21.38;18.57
39411;BME280;26579;43.238;23.124;2024-03-23T08:45:17;96812.91;;;21.72;20.09
39411;BME280;26579;43.238;23.124;2024-03-23T08:47:42;96801.13;;;21.87;19.41
39411;BME280;26579;43.238;23.124;2024-03-23T08:50:08;96810.72;;;21.88;18.39
39411;BME280;26579;43.238;23.124;2024-03-23T08:52:34;96806.06;;;22.04;19.44
39411;BME280;26579;43.238;23.124;2024-03-23T08:55:00;96802.31;;;21.78;17.79
39411;BME280;26579;43.238;23.124;2024-03-23T08:57:25;96805.09;;;22.18;21.45
39411;BME280;26579;43.238;23.124;2024-03-23T08:59:51;96802.47;;;22.38;19.75
39411;BME280;26579;43.238;23.124;2024-03-23T09:02:16;96805.13;;;22.31;17.96
39411;BME280;26579;43.238;23.124;2024-03-23T09:04:43;96801.84;;;22.23;19.07
39411;BME280;26579;43.238;23.124;2024-03-23T09:07:09;96788.19;;;22.26;18.68
39411;BME280;26579;43.238;23.124;2024-03-23T09:09:34;96793.72;;;22.57;19.13
39411;BME280;26579;43.238;23.124;2024-03-23T09:12:00;96782.88;;;22.66;18.23
39411;BME280;26579;43.238;23.124;2024-03-23T09:14:26;96782.66;;;22.67;17.64
39411;BME280;26579;43.238;23.124;2024-03-23T09:16:51;96782.47;;;22.75;19.78
39411;BME280;26579;43.238;23.124;2024-03-23T09:19:17;96780.22;;;22.99;18.76
39411;BME280;26579;43.238;23.124;2024-03-23T09:21:43;96783.22;;;23.09;20.48
39411;BME280;26579;43.238;23.124;2024-03-23T09:24:09;96774.00;;;23.18;18.06
39411;BME280;26579;43.238;23.124;2024-03-23T09:26:34;96762.84;;;22.76;17.33
39411;BME280;26579;43.238;23.124;2024-03-23T09:29:00;96747.78;;;22.57;17.37
39411;BME280;26579;43.238;23.124;2024-03-23T09:31:26;96766.94;;;22.92;19.10
39411;BME280;26579;43.238;23.124;2024-03-23T09:33:51;96751.22;;;22.71;18.00
39411;BME280;26579;43.238;23.124;2024-03-23T09:36:17;96757.38;;;22.51;18.18
39411;BME280;26579;43.238;23.124;2024-03-23T09:38:42;96754.72;;;22.25;17.92
39411;BME280;26579;43.238;23.124;2024-03-23T09:41:08;96754.09;;;22.69;18.80
39411;BME280;26579;43.238;23.124;2024-03-23T09:43:35;96745.34;;;22.49;18.52
39411;BME280;26579;43.238;23.124;2024-03-23T09:46:04;96738.50;;;21.60;18.72
39411;BME280;26579;43.238;23.124;2024-03-23T09:48:30;96744.25;;;21.70;19.33
39411;BME280;26579;43.238;23.124;2024-03-23T09:50:56;96742.44;;;22.04;20.02
39411;BME280;26579;43.238;23.124;2024-03-23T09:53:21;96736.16;;;22.11;19.80
39411;BME280;26579;43.238;23.124;2024-03-23T09:55:47;96729.03;;;22.25;20.09
39411;BME280;26579;43.238;23.124;2024-03-23T09:58:15;96718.78;;;21.82;18.96
39411;BME280;26579;43.238;23.124;2024-03-23T10:00:40;96730.00;;;21.91;20.76
39411;BME280;26579;43.238;23.124;2024-03-23T10:03:06;96720.47;;;22.30;21.51
39411;BME280;26579;43.238;23.124;2024-03-23T10:05:32;96717.78;;;22.50;21.53
39411;BME280;26579;43.238;23.124;2024-03-23T10:07:58;96712.25;;;21.98;19.48
39411;BME280;26579;43.238;23.124;2024-03-23T10:10:27;96711.47;;;21.91;19.12
39411;BME280;26579;43.238;23.124;2024-03-23T10:12:52;96705.50;;;21.69;19.21
39411;BME280;26579;43.238;23.124;2024-03-23T10:15:25;96703.25;;;21.73;19.10
39411;BME280;26579;43.238;23.124;2024-03-23T10:17:51;96692.69;;;21.86;19.93
39411;BME280;26579;43.238;23.124;2024-03-23T10:20:21;96695.56;;;22.11;22.66
39411;BME280;26579;43.238;23.124;2024-03-23T10:22:47;96698.34;;;21.56;18.42
39411;BME280;26579;43.238;23.124;2024-03-23T10:25:13;96691.47;;;22.02;19.28
39411;BME280;26579;43.238;23.124;2024-03-23T10:27:39;96686.38;;;22.00;20.45
39411;BME280;26579;43.238;23.124;2024-03-23T10:30:13;96675.78;;;22.47;19.10
39411;BME280;26579;43.238;23.124;2024-03-23T10:32:39;96668.78;;;22.72;19.82
39411;BME280;26579;43.238;23.124;2024-03-23T10:35:15;96662.06;;;22.56;18.67
39411;BME280;26579;43.238;23.124;2024-03-23T10:37:42;96661.38;;;22.88;19.51
39411;BME280;26579;43.238;23.124;2024-03-23T10:40:10;96660.09;;;23.03;19.14
39411;BME280;26579;43.238;23.124;2024-03-23T10:42:37;96659.09;;;23.04;19.65
39411;BME280;26579;43.238;23.124;2024-03-23T10:45:04;96646.81;;;23.03;19.33
39411;BME280;26579;43.238;23.124;2024-03-23T10:47:31;96641.13;;;22.93;17.91
39411;BME280;26579;43.238;23.124;2024-03-23T10:49:56;96640.94;;;23.01;18.96
39411;BME280;26579;43.238;23.124;2024-03-23T10:52:22;96636.81;;;23.05;19.48
39411;BME280;26579;43.238;23.124;2024-03-23T10:54:51;96629.84;;;22.53;19.48
39411;BME280;26579;43.238;23.124;2024-03-23T10:57:31;96623.22;;;22.82;19.04
39411;BME280;26579;43.238;23.124;2024-03-23T11:00:02;96616.72;;;22.78;18.53
39411;BME280;26579;43.238;23.124;2024-03-23T11:02:28;96625.41;;;22.33;18.28
39411;BME280;26579;43.238;23.124;2024-03-23T11:04:54;96613.56;;;22.36;19.05
39411;BME280;26579;43.238;23.124;2024-03-23T11:07:30;96624.38;;;22.28;18.38
39411;BME280;26579;43.238;23.124;2024-03-23T11:09:56;96616.59;;;22.46;18.13
39411;BME280;26579;43.238;23.124;2024-03-23T11:14:55;96598.94;;;22.72;18.54
39411;BME280;26579;43.238;23.124;2024-03-23T11:17:22;96587.53;;;22.71;18.95
39411;BME280;26579;43.238;23.124;2024-03-23T11:20:03;96595.75;;;22.63;18.09
39411;BME280;26579;43.238;23.124;2024-03-23T11:22:42;96586.06;;;22.04;17.95
39411;BME280;26579;43.238;23.124;2024-03-23T11:25:24;96595.25;;;22.01;18.54
39411;BME280;26579;43.238;23.124;2024-03-23T11:27:51;96581.13;;;22.34;19.65
39411;BME280;26579;43.238;23.124;2024-03-23T11:30:18;96582.25;;;22.65;19.05
39411;BME280;26579;43.238;23.124;2024-03-23T11:32:45;96574.25;;;22.71;19.47
39411;BME280;26579;43.238;23.124;2024-03-23T11:38:08;96562.31;;;22.94;19.86
39411;BME280;26579;43.238;23.124;2024-03-23T11:40:38;96545.88;;;22.78;18.68
39411;BME280;26579;43.238;23.124;2024-03-23T11:43:06;96544.25;;;22.12;18.65
39411;BME280;26579;43.238;23.124;2024-03-23T11:45:39;96541.97;;;22.36;20.29
39411;BME280;26579;43.238;23.124;2024-03-23T11:48:16;96531.22;;;22.18;19.04
39411;BME280;26579;43.238;23.124;2024-03-23T11:50:43;96524.00;;;22.38;19.94
39411;BME280;26579;43.238;23.124;2024-03-23T11:53:22;96530.19;;;22.70;20.49
39411;BME280;26579;43.238;23.124;2024-03-23T11:58:20;96521.97;;;22.40;18.85
39411;BME280;26579;43.238;23.124;2024-03-23T12:00:51;96510.19;;;22.16;20.53
39411;BME280;26579;43.238;23.124;2024-03-23T12:03:18;96519.84;;;21.77;18.74
39411;BME280;26579;43.238;23.124;2024-03-23T12:05:48;96509.44;;;21.76;20.47
39411;BME280;26579;43.238;23.124;2024-03-23T12:11:05;96508.88;;;21.54;19.66
39411;BME280;26579;43.238;23.124;2024-03-23T12:13:31;96499.06;;;21.81;19.84
39411;BME280;26579;43.238;23.124;2024-03-23T12:18:40;96487.50;;;22.40;20.69
39411;BME280;26579;43.238;23.124;2024-03-23T12:21:06;96478.50;;;22.41;18.84
39411;BME280;26579;43.238;23.124;2024-03-23T12:23:32;96469.75;;;22.41;18.81
39411;BME280;26579;43.238;23.124;2024-03-23T12:25:58;96473.72;;;22.56;19.24
39411;BME280;26579;43.238;23.124;2024-03-23T12:28:24;96472.59;;;22.39;18.40
39411;BME280;26579;43.238;23.124;2024-03-23T12:30:49;96471.84;;;22.25;18.26
39411;BME280;26579;43.238;23.124;2024-03-23T12:33:15;96463.69;;;22.27;18.64
39411;BME280;26579;43.238;23.124;2024-03-23T12:35:40;96454.13;;;22.12;18.96
39411;BME280;26579;43.238;23.124;2024-03-23T12:38:06;96448.97;;;22.31;19.45
39411;BME280;26579;43.238;23.124;2024-03-23T12:40:32;96449.84;;;22.11;18.75
39411;BME280;26579;43.238;23.124;2024-03-23T12:42:57;96442.50;;;22.20;20.17
39411;BME280;26579;43.238;23.124;2024-03-23T12:45:23;96435.88;;;22.36;19.64
39411;BME280;26579;43.238;23.124;2024-03-23T12:47:48;96435.88;;;22.36;18.54
39411;BME280;26579;43.238;23.124;2024-03-23T12:50:14;96437.97;;;22.27;18.74
39411;BME280;26579;43.238;23.124;2024-03-23T12:52:40;96431.44;;;22.30;18.74
39411;BME280;26579;43.238;23.124;2024-03-23T12:55:06;96435.69;;;22.37;19.08
39411;BME280;26579;43.238;23.124;2024-03-23T12:57:32;96423.06;;;22.33;19.34
39411;BME280;26579;43.238;23.124;2024-03-23T12:59:58;96414.16;;;22.14;18.75
39411;BME280;26579;43.238;23.124;2024-03-23T13:02:23;96415.34;;;21.66;19.22
39411;BME280;26579;43.238;23.124;2024-03-23T13:04:50;96424.50;;;21.70;19.30
39411;BME280;26579;43.238;23.124;2024-03-23T13:07:17;96410.72;;;21.42;19.64
39411;BME280;26579;43.238;23.124;2024-03-23T13:09:43;96414.31;;;21.61;20.94
39411;BME280;26579;43.238;23.124;2024-03-23T13:12:09;96411.50;;;21.62;19.81
39411;BME280;26579;43.238;23.124;2024-03-23T13:14:35;96403.44;;;21.89;19.43
39411;BME280;26579;43.238;23.124;2024-03-23T13:17:01;96399.31;;;22.06;20.33
39411;BME280;26579;43.238;23.124;2024-03-23T13:19:26;96393.38;;;22.04;18.96
39411;BME280;26579;43.238;23.124;2024-03-23T13:21:55;96386.50;;;21.97;18.78
39411;BME280;26579;43.238;23.124;2024-03-23T13:24:24;96392.09;;;22.27;19.12
39411;BME280;26579;43.238;23.124;2024-03-23T13:26:51;96397.66;;;22.50;20.00
39411;BME280;26579;43.238;23.124;2024-03-23T13:29:16;96386.13;;;22.70;20.20
39411;BME280;26579;43.238;23.124;2024-03-23T13:31:42;96379.06;;;22.82;19.89
39411;BME280;26579;43.238;23.124;2024-03-23T13:34:08;96379.00;;;22.95;18.63
39411;BME280;26579;43.238;23.124;2024-03-23T13:36:33;96383.00;;;23.04;19.24
39411;BME280;26579;43.238;23.124;2024-03-23T13:38:59;96383.31;;;23.15;18.63
39411;BME280;26579;43.238;23.124;2024-03-23T13:41:24;96370.81;;;23.22;18.58
39411;BME280;26579;43.238;23.124;2024-03-23T13:43:50;96376.25;;;23.27;19.44
39411;BME280;26579;43.238;23.124;2024-03-23T13:46:16;96380.44;;;23.16;18.92
39411;BME280;26579;43.238;23.124;2024-03-23T13:48:41;96371.00;;;23.20;18.81
39411;BME280;26579;43.238;23.124;2024-03-23T13:51:07;96370.03;;;23.15;18.44
39411;BME280;26579;43.238;23.124;2024-03-23T13:53:32;96370.03;;;23.15;18.38
39411;BME280;26579;43.238;23.124;2024-03-23T13:55:58;96371.88;;;23.14;19.62
39411;BME280;26579;43.238;23.124;2024-03-23T13:58:24;96354.47;;;23.18;18.91